Time;durP1;ratioP1;P1;durP2;ratioP2;P2;SDS_P1;SDS_P2;PMS_P1;PMS_P2;Temp;Humidity;BMP_temperature;BMP_pressure;BME280_temperature;BME280_humidity;BME280_pressure;Samples;Min_cycle;Max_cycle;Signal;HPM_P1;HPM_P2
2023/01/22 00:00:10;;;;;;;;;;;;;;;;;;4998411;28;19925;-58
2023/01/22 00:02:38;;;;;;;;;;;;;;;;;;4999595;28;20958;-60
2023/01/22 00:05:03;;;;;;;;;;;;;;;;;;4997701;28;19921;-60
2023/01/22 00:07:31;;;;;;;;;;;;;;;;;;5010408;28;19980;-59
2023/01/22 00:09:56;;;;;;;;;;;;;;;;;;4996756;28;20288;-59
2023/01/22 00:12:24;;;;;;;;;;;;;;;;;;4996737;28;19920;-59
2023/01/22 00:14:49;;;;;;;;;;;;;;;;;;5000232;28;19921;-59
2023/01/22 00:17:18;;;;;;;;;;;;;;;;;;4998631;28;19964;-59
2023/01/22 00:19:45;;;;;;;;;;;;;;;;;;4990814;28;20141;-59
2023/01/22 00:22:11;;;;;;;;;;;;;;;;;;4999025;28;19939;-59
2023/01/22 00:24:39;;;;;;;;;;;;;;;;;;4981601;28;20571;-59
2023/01/22 00:27:06;;;;;;;;;;;;;;;;;;5009854;28;19917;-59
2023/01/22 00:32:49;;;;;;;;;;;;;;;;;;4996945;28;19967;-59
2023/01/22 00:35:14;;;;;;;;;;;;;;;;;;4984201;28;19926;-58
2023/01/22 00:37:39;;;;;;;;;;;;;;;;;;4996890;28;19925;-58
2023/01/22 00:40:08;;;;;;;;;;;;;;;;;;5000603;28;19920;-59
2023/01/22 00:42:33;;;;;;;;;;;;;;;;;;4997286;28;19924;-59
2023/01/22 00:45:00;;;;;;;;;;;;;;;;;;4999034;28;20040;-58
2023/01/22 00:47:27;;;;;;;;;;;;;;;;;;4998065;28;20338;-59
2023/01/22 00:49:53;;;;;;;;;;;;;;;;;;4996590;28;21464;-58
2023/01/22 00:52:18;;;;;;;;;;;;;;;;;;5000012;28;19937;-58
2023/01/22 00:54:44;;;;;;;;;;;;;;;;;;4995020;28;20438;-58
2023/01/22 00:57:09;;;;;;;;;;;;;;;;;;4981334;28;19921;-58
2023/01/22 00:59:35;;;;;;;;;;;;;;;;;;5000118;28;19921;-58
2023/01/22 01:02:00;;;;;;;;;;;;;;;;;;4998355;28;20155;-58
2023/01/22 01:04:28;;;;;;;;;;;;;;;;;;4997340;28;19932;-58
2023/01/22 01:06:53;;;;;;;;;;;;;;;;;;5000619;28;19921;-58
2023/01/22 01:09:18;;;;;;;;;;;;;;;;;;4999174;28;20308;-58
2023/01/22 01:11:44;;;;;;;;;;;;;;;;;;4996051;28;19921;-58
2023/01/22 01:14:12;;;;;;;;;;;;;;;;;;4998338;28;19947;-60
2023/01/22 01:16:37;;;;;;;;;;;;;;;;;;4995541;28;19991;-58
2023/01/22 01:19:03;;;;;;;;;;;;;;;;;;4998811;28;20531;-59
2023/01/22 01:21:29;;;;;;;;;;;;;;;;;;4998421;28;19918;-58
2023/01/22 01:23:54;;;;;;;;;;;;;;;;;;4991245;28;19929;-59
2023/01/22 01:26:20;;;;;;;;;;;;;;;;;;4996796;28;19921;-58
2023/01/22 01:28:46;;;;;;;;;;;;;;;;;;4997523;28;20575;-59
2023/01/22 01:31:12;;;;;;;;;;;;;;;;;;4997324;28;19933;-59
2023/01/22 01:33:39;;;;;;;;;;;;;;;;;;4998963;28;20691;-58
2023/01/22 01:39:22;;;;;;;;;;;;;;;;;;4996651;28;19931;-59
2023/01/22 01:41:49;;;;;;;;;;;;;;;;;;4994776;28;19956;-59
2023/01/22 01:44:14;;;;;;;;;;;;;;;;;;4996179;28;19918;-59
2023/01/22 01:46:40;;;;;;;;;;;;;;;;;;4999843;28;20073;-59
2023/01/22 01:49:08;;;;;;;;;;;;;;;;;;4990879;28;19929;-59
2023/01/22 01:51:33;;;;;;;;;;;;;;;;;;4997023;28;20240;-59
2023/01/22 01:54:00;;;;;;;;;;;;;;;;;;4996938;28;19917;-59
2023/01/22 01:56:35;;;;;;;;;;;;;;;;;;4995314;28;19921;-59
2023/01/22 01:59:00;;;;;;;;;;;;;;;;;;4996508;28;19924;-59
2023/01/22 02:01:26;;;;;;;;;;;;;;;;;;4995189;28;19922;-59
2023/01/22 02:03:51;;;;;;;;;;;;;;;;;;4993629;28;19925;-59
2023/01/22 02:06:19;;;;;;;;;;;;;;;;;;4991394;28;19921;-59
2023/01/22 02:08:44;;;;;;;;;;;;;;;;;;4999296;28;19967;-59
2023/01/22 02:11:14;;;;;;;;;;;;;;;;;;4993550;28;19943;-59
2023/01/22 02:13:40;;;;;;;;;;;;;;;;;;4997575;28;19917;-59
2023/01/22 02:16:06;;;;;;;;;;;;;;;;;;4995599;28;19921;-59
2023/01/22 02:18:34;;;;;;;;;;;;;;;;;;4999149;28;20027;-59
2023/01/22 02:21:02;;;;;;;;;;;;;;;;;;4995723;28;20155;-59
2023/01/22 02:23:27;;;;;;;;;;;;;;;;;;4997086;28;19921;-59
2023/01/22 02:25:53;;;;;;;;;;;;;;;;;;4994300;28;20012;-59
2023/01/22 02:28:19;;;;;;;;;;;;;;;;;;4995770;28;20068;-59
2023/01/22 02:30:46;;;;;;;;;;;;;;;;;;4994860;28;20274;-59
2023/01/22 02:33:12;;;;;;;;;;;;;;;;;;4993283;28;19928;-59
2023/01/22 02:35:37;;;;;;;;;;;;;;;;;;4998467;28;21351;-58
2023/01/22 02:38:05;;;;;;;;;;;;;;;;;;4981603;28;20576;-58
2023/01/22 02:40:30;;;;;;;;;;;;;;;;;;4997155;28;20608;-59
2023/01/22 02:42:56;;;;;;;;;;;;;;;;;;4998389;28;19917;-58
2023/01/22 02:45:21;;;;;;;;;;;;;;;;;;4993406;28;19922;-59
2023/01/22 02:47:46;;;;;;;;;;;;;;;;;;4997094;28;21588;-58
2023/01/22 02:50:12;;;;;;;;;;;;;;;;;;4982372;28;19929;-58
2023/01/22 02:52:37;;;;;;;;;;;;;;;;;;4995536;28;19921;-59
2023/01/22 02:55:02;;;;;;;;;;;;;;;;;;4997904;28;19928;-58
2023/01/22 02:57:31;;;;;;;;;;;;;;;;;;5000793;28;19921;-59
2023/01/22 02:59:58;;;;;;;;;;;;;;;;;;5000320;28;19925;-59
2023/01/22 03:02:24;;;;;;;;;;;;;;;;;;5002665;28;20490;-59
2023/01/22 03:04:49;;;;;;;;;;;;;;;;;;5000187;28;19928;-59
2023/01/22 03:07:17;;;;;;;;;;;;;;;;;;4998504;28;19921;-59
2023/01/22 03:09:42;;;;;;;;;;;;;;;;;;4998989;28;19921;-59
2023/01/22 03:21:13;;;;;;;;;;;;;;;;;;4996256;28;20370;-59
2023/01/22 03:23:39;;;;;;;;;;;;;;;;;;5010748;28;20085;-59
2023/01/22 03:29:21;;;;;;;;;;;;;;;;;;4997248;28;20367;-59
2023/01/22 03:31:47;;;;;;;;;;;;;;;;;;5001769;28;19921;-59
2023/01/22 03:34:12;;;;;;;;;;;;;;;;;;4998598;28;20268;-59
2023/01/22 03:36:37;;;;;;;;;;;;;;;;;;4985789;28;19983;-59
2023/01/22 03:39:04;;;;;;;;;;;;;;;;;;5001574;28;20016;-60
2023/01/22 03:41:29;;;;;;;;;;;;;;;;;;4983725;28;20064;-59
2023/01/22 03:43:57;;;;;;;;;;;;;;;;;;5000766;28;20388;-59
2023/01/22 03:46:23;;;;;;;;;;;;;;;;;;4999912;28;20603;-59
2023/01/22 03:48:48;;;;;;;;;;;;;;;;;;4998675;28;20404;-59
2023/01/22 03:51:14;;;;;;;;;;;;;;;;;;4998545;28;20465;-59
2023/01/22 03:56:56;;;;;;;;;;;;;;;;;;4997729;28;20007;-59
2023/01/22 03:59:23;;;;;;;;;;;;;;;;;;4997478;28;21520;-60
2023/01/22 04:01:52;;;;;;;;;;;;;;;;;;4998356;28;19948;-59
2023/01/22 04:04:20;;;;;;;;;;;;;;;;;;4999325;28;19924;-60
2023/01/22 04:06:50;;;;;;;;;;;;;;;;;;4994700;28;20007;-60
2023/01/22 04:09:15;;;;;;;;;;;;;;;;;;4999214;28;19932;-60
2023/01/22 04:11:40;;;;;;;;;;;;;;;;;;4998219;28;20133;-60
2023/01/22 04:14:09;;;;;;;;;;;;;;;;;;4998871;28;19967;-60
2023/01/22 04:16:36;;;;;;;;;;;;;;;;;;4996312;28;19999;-60
2023/01/22 04:19:02;;;;;;;;;;;;;;;;;;4975884;28;19917;-60
2023/01/22 04:21:27;;;;;;;;;;;;;;;;;;4995874;28;19921;-60
2023/01/22 04:26:38;;;;;;;;;;;;;;;;;;4999031;28;19917;-60
2023/01/22 04:29:04;;;;;;;;;;;;;;;;;;4996744;28;20363;-60
2023/01/22 04:31:29;;;;;;;;;;;;;;;;;;4991672;28;19921;-60
2023/01/22 04:33:54;;;;;;;;;;;;;;;;;;4999968;28;19925;-60
2023/01/22 04:36:20;;;;;;;;;;;;;;;;;;4997257;28;20631;-60
2023/01/22 04:38:48;;;;;;;;;;;;;;;;;;5009996;28;19921;-60
2023/01/22 04:41:13;;;;;;;;;;;;;;;;;;5001037;28;20154;-61
2023/01/22 04:43:41;;;;;;;;;;;;;;;;;;4997884;28;22049;-60
2023/01/22 04:46:10;;;;;;;;;;;;;;;;;;4992305;28;19925;-60
2023/01/22 04:48:36;;;;;;;;;;;;;;;;;;4998041;28;20020;-59
2023/01/22 04:51:04;;;;;;;;;;;;;;;;;;4996427;28;19933;-59
2023/01/22 04:53:32;;;;;;;;;;;;;;;;;;4995070;28;19947;-60
2023/01/22 04:55:58;;;;;;;;;;;;;;;;;;4996714;28;19921;-59
2023/01/22 04:58:23;;;;;;;;;;;;;;;;;;4998653;28;20290;-58
2023/01/22 05:00:48;;;;;;;;;;;;;;;;;;4998458;28;19932;-58
2023/01/22 05:03:16;;;;;;;;;;;;;;;;;;5011911;28;20124;-61
2023/01/22 05:05:44;;;;;;;;;;;;;;;;;;5009127;28;20386;-59
2023/01/22 05:08:09;;;;;;;;;;;;;;;;;;4996977;28;19925;-59
2023/01/22 05:10:37;;;;;;;;;;;;;;;;;;5009600;28;20401;-59
2023/01/22 05:13:05;;;;;;;;;;;;;;;;;;4998777;28;20224;-59
2023/01/22 05:15:30;;;;;;;;;;;;;;;;;;4995825;28;19921;-59
2023/01/22 05:17:56;;;;;;;;;;;;;;;;;;4997793;28;22097;-59
2023/01/22 05:20:21;;;;;;;;;;;;;;;;;;4996994;28;19927;-59
2023/01/22 05:22:49;;;;;;;;;;;;;;;;;;4998138;28;19941;-59
2023/01/22 05:25:14;;;;;;;;;;;;;;;;;;4996291;28;19966;-59
2023/01/22 05:27:39;;;;;;;;;;;;;;;;;;4993627;28;19925;-59
2023/01/22 05:30:05;;;;;;;;;;;;;;;;;;4998657;28;20376;-59
2023/01/22 05:32:33;;;;;;;;;;;;;;;;;;4995816;28;19921;-59
2023/01/22 05:34:58;;;;;;;;;;;;;;;;;;4996787;28;20092;-59
2023/01/22 05:37:24;;;;;;;;;;;;;;;;;;4997521;28;19931;-58
2023/01/22 05:39:52;;;;;;;;;;;;;;;;;;5007529;28;20419;-59
2023/01/22 05:42:18;;;;;;;;;;;;;;;;;;4990662;28;19961;-60
2023/01/22 05:44:43;;;;;;;;;;;;;;;;;;4991247;28;19917;-59
2023/01/22 05:47:09;;;;;;;;;;;;;;;;;;4995670;28;20324;-59
2023/01/22 05:49:36;;;;;;;;;;;;;;;;;;4996580;28;20358;-59
2023/01/22 05:52:04;;;;;;;;;;;;;;;;;;4976968;28;20373;-58
2023/01/22 05:54:30;;;;;;;;;;;;;;;;;;4995341;28;20714;-59
2023/01/22 05:56:56;;;;;;;;;;;;;;;;;;4995073;28;19921;-59
2023/01/22 05:59:21;;;;;;;;;;;;;;;;;;4990894;28;19928;-59
2023/01/22 06:01:51;;;;;;;;;;;;;;;;;;5005581;28;20032;-58
2023/01/22 06:04:21;;;;;;;;;;;;;;;;;;4998228;28;20300;-58
2023/01/22 06:06:47;;;;;;;;;;;;;;;;;;4998587;28;19992;-58
2023/01/22 06:09:14;;;;;;;;;;;;;;;;;;4976484;28;19963;-59
2023/01/22 06:11:40;;;;;;;;;;;;;;;;;;4991571;28;19924;-59
2023/01/22 06:14:08;;;;;;;;;;;;;;;;;;4994468;28;20018;-58
2023/01/22 06:16:36;;;;;;;;;;;;;;;;;;4993741;28;20138;-58
2023/01/22 06:19:04;;;;;;;;;;;;;;;;;;4990051;28;19973;-59
2023/01/22 06:21:32;;;;;;;;;;;;;;;;;;4993439;28;19917;-58
2023/01/22 06:23:58;;;;;;;;;;;;;;;;;;4989983;28;19921;-58
2023/01/22 06:26:23;;;;;;;;;;;;;;;;;;4999304;28;20415;-58
2023/01/22 06:28:49;;;;;;;;;;;;;;;;;;4997871;28;20463;-59
2023/01/22 06:31:14;;;;;;;;;;;;;;;;;;4999906;28;19976;-59
2023/01/22 06:33:40;;;;;;;;;;;;;;;;;;5001439;28;20574;-59
2023/01/22 06:36:05;;;;;;;;;;;;;;;;;;4999052;28;20388;-59
2023/01/22 06:38:35;;;;;;;;;;;;;;;;;;4998828;28;19928;-58
2023/01/22 06:41:03;;;;;;;;;;;;;;;;;;5010725;28;19921;-58
2023/01/22 06:43:33;;;;;;;;;;;;;;;;;;4997591;28;19921;-59
2023/01/22 06:45:59;;;;;;;;;;;;;;;;;;4997102;28;19921;-59
2023/01/22 06:48:26;;;;;;;;;;;;;;;;;;5010112;28;20418;-59
2023/01/22 06:50:52;;;;;;;;;;;;;;;;;;4999210;28;19917;-58
2023/01/22 06:53:18;;;;;;;;;;;;;;;;;;4997238;28;20284;-59
2023/01/22 06:55:48;;;;;;;;;;;;;;;;;;4996620;28;19971;-59
2023/01/22 06:58:16;;;;;;;;;;;;;;;;;;4998161;28;19921;-59
2023/01/22 07:00:41;;;;;;;;;;;;;;;;;;4997498;28;19927;-59
2023/01/22 07:03:07;;;;;;;;;;;;;;;;;;4998890;28;20289;-58
2023/01/22 07:05:35;;;;;;;;;;;;;;;;;;4999550;28;20272;-59
2023/01/22 07:08:01;;;;;;;;;;;;;;;;;;4996083;28;19920;-59
2023/01/22 07:10:27;;;;;;;;;;;;;;;;;;4999003;28;20004;-59
2023/01/22 07:16:11;;;;;;;;;;;;;;;;;;4996598;28;20068;-59
2023/01/22 07:18:38;;;;;;;;;;;;;;;;;;4981204;28;19963;-59
2023/01/22 07:21:06;;;;;;;;;;;;;;;;;;5001593;28;20548;-59
2023/01/22 07:23:31;;;;;;;;;;;;;;;;;;4997950;28;19929;-59
2023/01/22 07:25:57;;;;;;;;;;;;;;;;;;4991317;28;19949;-59
2023/01/22 07:31:39;;;;;;;;;;;;;;;;;;5000825;28;20288;-59
2023/01/22 07:34:06;;;;;;;;;;;;;;;;;;4998225;28;21919;-59
2023/01/22 07:36:34;;;;;;;;;;;;;;;;;;4989969;28;20408;-59
2023/01/22 07:39:02;;;;;;;;;;;;;;;;;;4997309;28;20686;-59
2023/01/22 07:41:27;;;;;;;;;;;;;;;;;;4999346;28;19921;-59
2023/01/22 07:43:56;;;;;;;;;;;;;;;;;;4996261;28;19928;-59
2023/01/22 07:46:23;;;;;;;;;;;;;;;;;;4995215;28;20376;-60
2023/01/22 07:48:51;;;;;;;;;;;;;;;;;;5002579;28;19936;-59
2023/01/22 07:51:19;;;;;;;;;;;;;;;;;;4993758;28;19917;-59
2023/01/22 07:53:45;;;;;;;;;;;;;;;;;;5002972;28;19923;-58
2023/01/22 07:56:10;;;;;;;;;;;;;;;;;;4999023;28;19921;-59
2023/01/22 07:58:40;;;;;;;;;;;;;;;;;;5001277;28;20224;-60
2023/01/22 08:01:09;;;;;;;;;;;;;;;;;;5002417;28;20016;-59
2023/01/22 08:03:37;;;;;;;;;;;;;;;;;;5000226;28;19959;-59
2023/01/22 08:06:05;;;;;;;;;;;;;;;;;;5003761;28;20016;-59
2023/01/22 08:08:30;;;;;;;;;;;;;;;;;;5000405;28;19975;-59
2023/01/22 08:10:58;;;;;;;;;;;;;;;;;;5002224;28;19917;-60
2023/01/22 08:13:23;;;;;;;;;;;;;;;;;;4997482;28;19959;-60
2023/01/22 08:15:49;;;;;;;;;;;;;;;;;;5002778;28;20058;-60
2023/01/22 08:18:14;;;;;;;;;;;;;;;;;;5002568;28;20389;-60
2023/01/22 08:20:40;;;;;;;;;;;;;;;;;;5003270;28;19921;-58
2023/01/22 08:23:05;;;;;;;;;;;;;;;;;;5001569;28;20080;-58
2023/01/22 08:25:33;;;;;;;;;;;;;;;;;;4993585;28;19921;-59
2023/01/22 08:28:01;;;;;;;;;;;;;;;;;;5002560;28;19921;-59
2023/01/22 08:30:29;;;;;;;;;;;;;;;;;;5001024;28;19944;-59
2023/01/22 08:32:55;;;;;;;;;;;;;;;;;;5003966;28;20575;-59
2023/01/22 08:35:22;;;;;;;;;;;;;;;;;;5001073;28;19921;-58
2023/01/22 08:37:48;;;;;;;;;;;;;;;;;;5012890;28;19926;-58
2023/01/22 08:40:14;;;;;;;;;;;;;;;;;;5001009;28;20040;-58
2023/01/22 08:42:41;;;;;;;;;;;;;;;;;;4995613;28;20288;-59
2023/01/22 08:45:07;;;;;;;;;;;;;;;;;;4997787;28;20130;-59
2023/01/22 08:47:37;;;;;;;;;;;;;;;;;;4996801;28;19928;-58
2023/01/22 08:50:03;;;;;;;;;;;;;;;;;;4991248;28;19929;-58
2023/01/22 08:52:29;;;;;;;;;;;;;;;;;;4995079;28;19975;-59
2023/01/22 08:54:54;;;;;;;;;;;;;;;;;;4995780;28;19924;-58
2023/01/22 08:57:22;;;;;;;;;;;;;;;;;;4996729;28;20631;-58
2023/01/22 08:59:50;;;;;;;;;;;;;;;;;;5002530;28;19952;-58
2023/01/22 09:02:18;;;;;;;;;;;;;;;;;;5011763;28;20380;-58
2023/01/22 09:04:46;;;;;;;;;;;;;;;;;;4994738;28;19921;-58
2023/01/22 09:07:11;;;;;;;;;;;;;;;;;;5000307;28;19921;-60
2023/01/22 09:09:36;;;;;;;;;;;;;;;;;;4997771;28;20407;-59
2023/01/22 09:12:02;;;;;;;;;;;;;;;;;;5001341;28;19921;-60
2023/01/22 09:14:27;;;;;;;;;;;;;;;;;;5000641;28;20387;-63
2023/01/22 09:16:55;;;;;;;;;;;;;;;;;;5000142;28;20268;-59
2023/01/22 09:19:21;;;;;;;;;;;;;;;;;;5001862;28;19920;-58
2023/01/22 09:21:49;;;;;;;;;;;;;;;;;;4999342;28;19921;-59
2023/01/22 09:24:14;;;;;;;;;;;;;;;;;;4993928;28;19917;-59
2023/01/22 09:26:41;;;;;;;;;;;;;;;;;;4999911;28;20352;-59
2023/01/22 09:29:06;;;;;;;;;;;;;;;;;;4995426;28;19921;-59
2023/01/22 09:31:34;;;;;;;;;;;;;;;;;;4995150;28;20419;-59
2023/01/22 09:34:02;;;;;;;;;;;;;;;;;;5001204;28;19923;-59
2023/01/22 09:36:30;;;;;;;;;;;;;;;;;;4998019;28;20019;-59
2023/01/22 09:38:58;;;;;;;;;;;;;;;;;;5000938;28;19925;-59
2023/01/22 09:41:23;;;;;;;;;;;;;;;;;;4997710;28;20332;-59
2023/01/22 09:43:49;;;;;;;;;;;;;;;;;;5002239;28;19932;-58
2023/01/22 09:46:14;;;;;;;;;;;;;;;;;;4992115;28;19927;-58
2023/01/22 09:48:39;;;;;;;;;;;;;;;;;;5000559;28;19940;-58
2023/01/22 09:51:05;;;;;;;;;;;;;;;;;;4992232;28;19982;-59
2023/01/22 09:53:35;;;;;;;;;;;;;;;;;;5011160;28;19917;-58
2023/01/22 09:56:03;;;;;;;;;;;;;;;;;;4983065;28;19948;-59
2023/01/22 09:58:31;;;;;;;;;;;;;;;;;;4982352;28;19925;-59
2023/01/22 10:00:58;;;;;;;;;;;;;;;;;;5009084;28;20063;-59
2023/01/22 10:03:24;;;;;;;;;;;;;;;;;;5001896;28;20444;-59
2023/01/22 10:05:49;;;;;;;;;;;;;;;;;;5000859;28;21610;-60
2023/01/22 10:08:17;;;;;;;;;;;;;;;;;;4998967;28;19960;-59
2023/01/22 10:10:45;;;;;;;;;;;;;;;;;;5000326;28;20261;-59
2023/01/22 10:13:10;;;;;;;;;;;;;;;;;;4997373;28;19987;-59
2023/01/22 10:15:38;;;;;;;;;;;;;;;;;;5011147;28;20055;-59
2023/01/22 10:18:04;;;;;;;;;;;;;;;;;;4997794;28;19918;-59
2023/01/22 10:20:29;;;;;;;;;;;;;;;;;;4998494;28;20277;-59
2023/01/22 10:22:57;;;;;;;;;;;;;;;;;;5000388;28;20730;-58
2023/01/22 10:25:22;;;;;;;;;;;;;;;;;;4997485;28;19993;-58
2023/01/22 10:27:52;;;;;;;;;;;;;;;;;;4998289;28;20419;-62
2023/01/22 10:30:23;;;;;;;;;;;;;;;;;;4998898;28;20043;-59
2023/01/22 10:32:48;;;;;;;;;;;;;;;;;;5002894;28;19921;-59
2023/01/22 10:35:14;;;;;;;;;;;;;;;;;;4999684;28;20284;-60
2023/01/22 10:37:39;;;;;;;;;;;;;;;;;;4994301;28;19971;-61
2023/01/22 10:40:04;;;;;;;;;;;;;;;;;;5010011;28;19937;-59
2023/01/22 10:42:34;;;;;;;;;;;;;;;;;;5010403;28;20014;-59
2023/01/22 10:45:00;;;;;;;;;;;;;;;;;;4997673;28;20084;-59
2023/01/22 10:47:26;;;;;;;;;;;;;;;;;;4999431;28;19941;-61
2023/01/22 10:49:51;;;;;;;;;;;;;;;;;;4985373;28;19982;-63
2023/01/22 10:52:16;;;;;;;;;;;;;;;;;;4999573;28;19924;-59
2023/01/22 10:54:47;;;;;;;;;;;;;;;;;;4999389;28;19934;-61
2023/01/22 10:57:15;;;;;;;;;;;;;;;;;;4990572;28;21624;-58
2023/01/22 10:59:40;;;;;;;;;;;;;;;;;;4996240;28;19921;-59
2023/01/22 11:02:06;;;;;;;;;;;;;;;;;;4989935;28;20006;-59
2023/01/22 11:04:32;;;;;;;;;;;;;;;;;;4990192;28;19917;-60
2023/01/22 11:06:57;;;;;;;;;;;;;;;;;;4995961;28;19923;-60
2023/01/22 11:09:22;;;;;;;;;;;;;;;;;;4979144;28;19925;-60
2023/01/22 11:11:48;;;;;;;;;;;;;;;;;;4999397;28;19921;-60
2023/01/22 11:14:13;;;;;;;;;;;;;;;;;;4995605;28;19928;-61
2023/01/22 11:16:39;;;;;;;;;;;;;;;;;;4996819;28;20177;-60
2023/01/22 11:19:04;;;;;;;;;;;;;;;;;;5000323;28;20375;-60
2023/01/22 11:21:32;;;;;;;;;;;;;;;;;;5000685;28;20340;-60
2023/01/22 11:23:57;;;;;;;;;;;;;;;;;;5003615;28;19921;-60
2023/01/22 11:26:22;;;;;;;;;;;;;;;;;;5001476;28;19985;-60
2023/01/22 11:28:48;;;;;;;;;;;;;;;;;;4999049;28;20562;-60
2023/01/22 11:31:13;;;;;;;;;;;;;;;;;;4995832;28;19921;-60
2023/01/22 11:33:42;;;;;;;;;;;;;;;;;;5000576;28;19940;-60
2023/01/22 11:36:10;;;;;;;;;;;;;;;;;;4999073;28;19928;-60
2023/01/22 11:38:35;;;;;;;;;;;;;;;;;;4996232;28;19921;-60
2023/01/22 11:41:00;;;;;;;;;;;;;;;;;;4972785;28;19956;-60
2023/01/22 11:43:28;;;;;;;;;;;;;;;;;;4990732;28;19921;-60
2023/01/22 11:45:54;;;;;;;;;;;;;;;;;;5007957;28;20573;-62
2023/01/22 11:48:21;;;;;;;;;;;;;;;;;;4995140;28;20393;-60
2023/01/22 11:50:52;;;;;;;;;;;;;;;;;;4997853;28;19927;-61
2023/01/22 11:53:17;;;;;;;;;;;;;;;;;;5001857;28;19921;-60
2023/01/22 11:55:45;;;;;;;;;;;;;;;;;;5001270;28;19917;-63
2023/01/22 11:58:10;;;;;;;;;;;;;;;;;;4983362;28;19921;-61
2023/01/22 12:00:38;;;;;;;;;;;;;;;;;;4997378;28;19964;-61
2023/01/22 12:03:06;;;;;;;;;;;;;;;;;;5001216;28;19921;-63
2023/01/22 12:05:34;;;;;;;;;;;;;;;;;;5002512;28;20012;-62
2023/01/22 12:07:59;;;;;;;;;;;;;;;;;;4979328;28;20470;-63
2023/01/22 12:13:44;;;;;;;;;;;;;;;;;;5001501;28;19974;-61
2023/01/22 12:16:12;;;;;;;;;;;;;;;;;;5001493;28;19925;-61
2023/01/22 12:18:39;;;;;;;;;;;;;;;;;;4999952;28;20014;-63
2023/01/22 12:21:05;;;;;;;;;;;;;;;;;;5001081;28;20043;-62
2023/01/22 12:23:32;;;;;;;;;;;;;;;;;;5003412;28;20047;-63
2023/01/22 12:25:58;;;;;;;;;;;;;;;;;;5003472;28;19928;-62
2023/01/22 12:28:23;;;;;;;;;;;;;;;;;;5001339;28;20341;-63
2023/01/22 12:30:51;;;;;;;;;;;;;;;;;;4979207;28;20324;-64
2023/01/22 12:33:19;;;;;;;;;;;;;;;;;;5005121;28;20364;-63
2023/01/22 12:35:48;;;;;;;;;;;;;;;;;;5002624;28;21558;-63
2023/01/22 12:38:16;;;;;;;;;;;;;;;;;;4999256;28;19925;-65
2023/01/22 12:40:42;;;;;;;;;;;;;;;;;;5004684;28;20010;-64
2023/01/22 12:43:10;;;;;;;;;;;;;;;;;;4978643;28;20008;-64
2023/01/22 12:45:46;;;;;;;;;;;;;;;;;;5001368;28;19972;-65
2023/01/22 12:48:15;;;;;;;;;;;;;;;;;;5001790;28;20465;-64
2023/01/22 12:50:40;;;;;;;;;;;;;;;;;;4993834;28;19920;-65
2023/01/22 12:53:11;;;;;;;;;;;;;;;;;;4996367;28;19921;-65
2023/01/22 12:55:41;;;;;;;;;;;;;;;;;;5000835;28;20748;-63
2023/01/22 12:58:06;;;;;;;;;;;;;;;;;;5002109;28;19924;-64
2023/01/22 13:00:38;;;;;;;;;;;;;;;;;;4997915;28;19921;-63
2023/01/22 13:03:03;;;;;;;;;;;;;;;;;;5001236;28;19924;-64
2023/01/22 13:05:31;;;;;;;;;;;;;;;;;;4994887;28;20335;-64
2023/01/22 13:07:56;;;;;;;;;;;;;;;;;;5003176;28;20574;-64
2023/01/22 13:10:21;;;;;;;;;;;;;;;;;;5003731;28;19925;-65
2023/01/22 13:12:48;;;;;;;;;;;;;;;;;;5001968;28;20277;-64
2023/01/22 13:15:13;;;;;;;;;;;;;;;;;;5010907;28;19944;-65
2023/01/22 13:17:41;;;;;;;;;;;;;;;;;;5003069;28;19920;-64
2023/01/22 13:20:07;;;;;;;;;;;;;;;;;;4998319;28;20521;-66
2023/01/22 13:22:32;;;;;;;;;;;;;;;;;;5003072;28;19921;-66
2023/01/22 13:24:57;;;;;;;;;;;;;;;;;;5012749;28;19925;-66
2023/01/22 13:27:23;;;;;;;;;;;;;;;;;;5011374;28;19921;-65
2023/01/22 13:29:51;;;;;;;;;;;;;;;;;;5003492;28;19935;-65
2023/01/22 13:32:17;;;;;;;;;;;;;;;;;;5003082;28;19920;-64
2023/01/22 13:34:42;;;;;;;;;;;;;;;;;;5004956;28;20281;-65
2023/01/22 13:37:08;;;;;;;;;;;;;;;;;;5002352;28;20203;-65
2023/01/22 13:39:35;;;;;;;;;;;;;;;;;;4994444;28;20388;-65
2023/01/22 13:42:03;;;;;;;;;;;;;;;;;;4978648;28;20448;-64
2023/01/22 13:44:29;;;;;;;;;;;;;;;;;;4977722;28;19928;-66
2023/01/22 13:46:54;;;;;;;;;;;;;;;;;;4994896;28;19921;-65
2023/01/22 13:49:19;;;;;;;;;;;;;;;;;;5003005;28;20540;-66
2023/01/22 13:51:45;;;;;;;;;;;;;;;;;;4976312;28;20459;-65
2023/01/22 13:54:12;;;;;;;;;;;;;;;;;;4986193;28;19924;-66
2023/01/22 13:56:41;;;;;;;;;;;;;;;;;;5001680;28;20016;-65
2023/01/22 13:59:08;;;;;;;;;;;;;;;;;;4993735;28;19925;-64
2023/01/22 14:01:36;;;;;;;;;;;;;;;;;;4994194;28;19928;-65
2023/01/22 14:04:02;;;;;;;;;;;;;;;;;;4999312;28;19918;-65
2023/01/22 14:06:29;;;;;;;;;;;;;;;;;;4986043;28;20044;-65
2023/01/22 14:08:57;;;;;;;;;;;;;;;;;;4978100;28;20027;-65
2023/01/22 14:11:23;;;;;;;;;;;;;;;;;;5001809;28;20979;-65
2023/01/22 14:13:50;;;;;;;;;;;;;;;;;;5000313;28;19963;-65
2023/01/22 14:16:18;;;;;;;;;;;;;;;;;;4985310;28;20460;-65
2023/01/22 14:18:46;;;;;;;;;;;;;;;;;;5002625;28;20100;-65
2023/01/22 14:21:11;;;;;;;;;;;;;;;;;;4993523;28;19957;-65
2023/01/22 14:23:40;;;;;;;;;;;;;;;;;;4985528;28;20227;-66
2023/01/22 14:26:05;;;;;;;;;;;;;;;;;;4986895;28;19925;-66
2023/01/22 14:28:31;;;;;;;;;;;;;;;;;;4999673;28;20583;-66
2023/01/22 14:30:57;;;;;;;;;;;;;;;;;;5002950;28;20383;-65
2023/01/22 14:33:23;;;;;;;;;;;;;;;;;;5002636;28;19921;-65
2023/01/22 14:35:51;;;;;;;;;;;;;;;;;;5000857;28;19987;-65
2023/01/22 14:38:19;;;;;;;;;;;;;;;;;;4978069;28;20410;-64
2023/01/22 14:40:44;;;;;;;;;;;;;;;;;;4995148;28;19925;-65
2023/01/22 14:43:10;;;;;;;;;;;;;;;;;;5002864;28;20272;-65
2023/01/22 14:45:38;;;;;;;;;;;;;;;;;;5005159;28;20115;-65
2023/01/22 14:48:03;;;;;;;;;;;;;;;;;;5004357;28;19917;-67
2023/01/22 14:50:31;;;;;;;;;;;;;;;;;;5013506;28;19987;-66
2023/01/22 14:52:56;;;;;;;;;;;;;;;;;;4997706;28;19957;-67
2023/01/22 14:55:24;;;;;;;;;;;;;;;;;;5005733;28;19921;-66
2023/01/22 14:57:53;;;;;;;;;;;;;;;;;;4990746;28;20231;-68
2023/01/22 15:00:19;;;;;;;;;;;;;;;;;;5004001;28;20016;-65
2023/01/22 15:02:47;;;;;;;;;;;;;;;;;;5002713;28;19932;-65
2023/01/22 15:05:15;;;;;;;;;;;;;;;;;;5005546;28;19917;-65
2023/01/22 15:07:42;;;;;;;;;;;;;;;;;;4984084;28;20351;-66
2023/01/22 15:10:07;;;;;;;;;;;;;;;;;;5004120;28;20004;-66
2023/01/22 15:12:35;;;;;;;;;;;;;;;;;;4997314;28;20035;-66
2023/01/22 15:15:01;;;;;;;;;;;;;;;;;;5004484;28;20330;-65
2023/01/22 15:17:28;;;;;;;;;;;;;;;;;;5003116;28;20494;-65
2023/01/22 15:19:56;;;;;;;;;;;;;;;;;;5005422;28;21587;-66
2023/01/22 15:22:21;;;;;;;;;;;;;;;;;;4979427;28;19922;-66
2023/01/22 15:24:47;;;;;;;;;;;;;;;;;;5004535;28;20258;-66
2023/01/22 15:27:17;;;;;;;;;;;;;;;;;;5004599;28;19925;-64
2023/01/22 15:32:58;;;;;;;;;;;;;;;;;;5004835;28;19927;-66
2023/01/22 15:35:26;;;;;;;;;;;;;;;;;;5006696;28;20082;-66
2023/01/22 15:37:54;;;;;;;;;;;;;;;;;;5003058;28;20006;-66
2023/01/22 15:40:21;;;;;;;;;;;;;;;;;;4980811;28;20408;-65
2023/01/22 15:42:46;;;;;;;;;;;;;;;;;;5003455;28;19947;-67
2023/01/22 15:45:14;;;;;;;;;;;;;;;;;;5002273;28;20366;-66
2023/01/22 15:47:39;;;;;;;;;;;;;;;;;;5004009;28;19921;-65
2023/01/22 15:50:05;;;;;;;;;;;;;;;;;;5003299;28;19968;-65
2023/01/22 15:52:31;;;;;;;;;;;;;;;;;;4986116;28;20358;-66
2023/01/22 15:54:56;;;;;;;;;;;;;;;;;;5015762;28;20415;-68
2023/01/22 15:57:21;;;;;;;;;;;;;;;;;;5004276;28;19980;-65
2023/01/22 15:59:47;;;;;;;;;;;;;;;;;;4997391;28;19918;-65
2023/01/22 16:02:12;;;;;;;;;;;;;;;;;;5005013;28;19921;-66
2023/01/22 16:04:38;;;;;;;;;;;;;;;;;;5001465;28;19928;-66
2023/01/22 16:07:03;;;;;;;;;;;;;;;;;;4989799;28;19957;-66
2023/01/22 16:09:28;;;;;;;;;;;;;;;;;;4988026;28;20365;-67
2023/01/22 16:11:55;;;;;;;;;;;;;;;;;;5004305;28;19923;-67
2023/01/22 16:14:21;;;;;;;;;;;;;;;;;;5002546;28;20438;-66
2023/01/22 16:16:47;;;;;;;;;;;;;;;;;;5004069;28;19999;-67
2023/01/22 16:19:14;;;;;;;;;;;;;;;;;;5005894;28;20000;-67
2023/01/22 16:21:42;;;;;;;;;;;;;;;;;;4999536;28;19927;-68
2023/01/22 16:24:10;;;;;;;;;;;;;;;;;;4998059;28;20030;-68
2023/01/22 16:26:36;;;;;;;;;;;;;;;;;;5003308;28;20032;-65
2023/01/22 16:29:01;;;;;;;;;;;;;;;;;;5013335;28;19925;-66
2023/01/22 16:31:26;;;;;;;;;;;;;;;;;;4997062;28;19968;-66
2023/01/22 16:33:52;;;;;;;;;;;;;;;;;;5004200;28;19921;-67
2023/01/22 16:36:17;;;;;;;;;;;;;;;;;;5003510;28;19960;-66
2023/01/22 16:38:45;;;;;;;;;;;;;;;;;;4997697;28;20100;-66
2023/01/22 16:41:13;;;;;;;;;;;;;;;;;;5002070;28;20120;-66
2023/01/22 16:43:38;;;;;;;;;;;;;;;;;;4995512;28;20491;-65
2023/01/22 16:46:04;;;;;;;;;;;;;;;;;;4997231;28;20042;-66
2023/01/22 16:48:29;;;;;;;;;;;;;;;;;;5004246;28;19921;-65
2023/01/22 16:50:57;;;;;;;;;;;;;;;;;;4999717;28;19932;-67
2023/01/22 16:53:24;;;;;;;;;;;;;;;;;;5002460;28;19975;-66
2023/01/22 16:55:50;;;;;;;;;;;;;;;;;;5002606;28;19921;-66
2023/01/22 16:58:17;;;;;;;;;;;;;;;;;;5011521;28;19923;-65
2023/01/22 17:00:42;;;;;;;;;;;;;;;;;;4995638;28;19956;-65
2023/01/22 17:06:26;;;;;;;;;;;;;;;;;;5000615;28;20043;-67
2023/01/22 17:08:52;;;;;;;;;;;;;;;;;;4999634;28;20458;-66
2023/01/22 17:11:17;;;;;;;;;;;;;;;;;;5003315;28;19917;-66
2023/01/22 17:13:42;;;;;;;;;;;;;;;;;;4978610;28;19924;-66
2023/01/22 17:16:10;;;;;;;;;;;;;;;;;;5000672;28;19927;-66
2023/01/22 17:18:36;;;;;;;;;;;;;;;;;;5004283;28;19921;-66
2023/01/22 17:23:49;;;;;;;;;;;;;;;;;;5001745;28;20552;-66